createdAt,value
2018-01-15T00:00:20.752Z,93.40
2018-01-15T00:02:49.112Z,93.50
2018-01-15T00:05:16.726Z,93.50
2018-01-15T00:07:44.327Z,93.50
2018-01-15T00:10:11.932Z,93.70
2018-01-15T00:12:39.549Z,93.60
2018-01-15T00:15:07.148Z,93.70
2018-01-15T00:17:34.872Z,93.70
2018-01-15T00:20:02.461Z,93.70
2018-01-15T00:22:33.573Z,93.80
2018-01-15T00:25:01.219Z,93.80
2018-01-15T00:27:28.825Z,93.80
2018-01-15T00:29:57.194Z,93.90
2018-01-15T00:32:24.789Z,93.80
2018-01-15T00:34:52.374Z,94.20
2018-01-15T00:37:19.980Z,94.00
2018-01-15T00:39:47.596Z,94.00
2018-01-15T00:42:15.201Z,94.00
2018-01-15T00:44:42.808Z,94.00
2018-01-15T00:47:10.419Z,94.10
2018-01-15T00:49:38.033Z,94.00
2018-01-15T00:52:05.632Z,93.80
2018-01-15T00:54:33.258Z,94.10
2018-01-15T00:57:00.840Z,94.10
2018-01-15T00:59:28.457Z,94.10
2018-01-15T01:01:56.064Z,94.10
2018-01-15T01:04:23.660Z,94.10
2018-01-15T01:06:51.262Z,94.10
2018-01-15T01:09:18.897Z,94.10
2018-01-15T01:11:46.495Z,94.10
2018-01-15T01:14:14.079Z,94.10
2018-01-15T01:16:41.705Z,94.20
2018-01-15T01:19:09.312Z,94.20
2018-01-15T01:21:36.922Z,94.20
2018-01-15T01:24:04.549Z,94.30
2018-01-15T01:26:32.915Z,94.40
2018-01-15T01:29:00.516Z,94.40
2018-01-15T01:31:28.122Z,94.40
2018-01-15T01:33:55.731Z,94.40
2018-01-15T01:36:23.325Z,94.40
2018-01-15T01:38:50.945Z,94.40
2018-01-15T01:41:19.317Z,94.30
2018-01-15T01:43:47.675Z,94.20
2018-01-15T01:46:15.296Z,94.20
2018-01-15T01:48:42.898Z,94.10
2018-01-15T01:51:10.509Z,94.00
2018-01-15T01:53:38.100Z,94.00
2018-01-15T01:56:05.702Z,94.00
2018-01-15T01:58:34.112Z,94.10
2018-01-15T02:01:01.722Z,94.10
2018-01-15T02:03:29.319Z,94.10
2018-01-15T02:05:56.915Z,94.00
2018-01-15T02:08:24.522Z,94.00
2018-01-15T02:10:52.159Z,94.00
2018-01-15T02:13:19.751Z,93.90
2018-01-15T02:15:48.125Z,93.90
2018-01-15T02:18:16.506Z,93.80
2018-01-15T02:20:44.859Z,93.80
2018-01-15T02:23:12.476Z,94.00
2018-01-15T02:25:40.085Z,94.00
2018-01-15T02:28:07.695Z,94.10
2018-01-15T02:30:35.310Z,94.20
2018-01-15T02:33:02.915Z,94.30
2018-01-15T02:35:30.570Z,94.50
2018-01-15T02:37:58.929Z,94.70
2018-01-15T02:40:27.297Z,95.10
2018-01-15T02:42:54.875Z,94.80
2018-01-15T02:45:23.242Z,94.90
2018-01-15T02:47:50.865Z,94.90
2018-01-15T02:50:18.474Z,94.70
2018-01-15T02:52:46.834Z,94.70
2018-01-15T02:55:14.439Z,94.70
2018-01-15T02:57:42.029Z,94.70
2018-01-15T03:00:09.672Z,94.70
2018-01-15T03:02:37.265Z,94.80
2018-01-15T03:05:04.871Z,94.90
2018-01-15T03:07:33.225Z,94.90
2018-01-15T03:10:00.819Z,94.90
2018-01-15T03:12:28.437Z,94.90
2018-01-15T03:14:56.061Z,95.00
2018-01-15T03:17:23.658Z,95.00
2018-01-15T03:19:51.236Z,95.10
2018-01-15T03:22:18.845Z,95.10
2018-01-15T03:24:46.482Z,95.20
2018-01-15T03:27:14.077Z,95.20
2018-01-15T03:29:41.664Z,95.10
2018-01-15T03:32:09.255Z,95.10
2018-01-15T03:34:37.634Z,95.00
2018-01-15T03:37:06.038Z,95.00
2018-01-15T03:39:39.772Z,95.00
2018-01-15T03:42:07.388Z,95.30
2018-01-15T03:44:35.758Z,95.10
2018-01-15T03:47:04.126Z,95.00
2018-01-15T03:49:31.709Z,95.00
2018-01-15T03:52:00.097Z,94.80
2018-01-15T03:54:27.707Z,94.80
2018-01-15T03:56:55.313Z,94.80
2018-01-15T03:59:22.930Z,94.70
2018-01-15T04:01:50.543Z,94.70
2018-01-15T04:04:18.233Z,94.90
2018-01-15T04:06:45.862Z,94.50
2018-01-15T04:09:13.459Z,94.50
2018-01-15T04:11:41.211Z,94.40
2018-01-15T04:14:08.807Z,94.40
2018-01-15T04:16:36.409Z,94.30
2018-01-15T04:19:04.114Z,94.20
2018-01-15T04:21:32.483Z,94.10
2018-01-15T04:24:07.377Z,94.10
2018-01-15T04:26:35.735Z,94.10
2018-01-15T04:29:03.315Z,94.10
2018-01-15T04:31:31.680Z,94.30
2018-01-15T04:33:59.280Z,94.30
2018-01-15T04:36:26.937Z,94.30
2018-01-15T04:38:54.622Z,94.20
2018-01-15T04:41:22.216Z,94.20
2018-01-15T04:43:49.839Z,94.10
2018-01-15T04:46:17.427Z,94.10
2018-01-15T04:48:45.075Z,94.20
2018-01-15T04:51:12.667Z,94.10
2018-01-15T04:53:40.251Z,94.10
2018-01-15T04:56:07.852Z,94.10
2018-01-15T04:58:35.452Z,94.00
2018-01-15T05:01:03.077Z,94.00
2018-01-15T05:03:30.675Z,94.40
2018-01-15T05:05:58.299Z,94.10
2018-01-15T05:08:25.892Z,94.10
2018-01-15T05:10:53.494Z,94.10
2018-01-15T05:13:21.104Z,94.10
2018-01-15T05:15:48.715Z,94.10
2018-01-15T05:18:16.318Z,94.10
2018-01-15T05:20:43.941Z,94.10
2018-01-15T05:23:11.540Z,94.00
2018-01-15T05:25:39.163Z,94.00
2018-01-15T05:28:06.780Z,93.90
2018-01-15T05:30:34.398Z,94.00
2018-01-15T05:33:02.000Z,94.00
2018-01-15T05:35:29.629Z,93.90
2018-01-15T05:38:03.262Z,93.80
2018-01-15T05:40:30.883Z,93.90
2018-01-15T05:42:58.482Z,93.90
2018-01-15T05:45:34.355Z,93.80
2018-01-15T05:48:02.736Z,93.70
2018-01-15T05:50:30.871Z,93.70
2018-01-15T05:52:58.479Z,93.70
2018-01-15T05:55:26.851Z,93.60
2018-01-15T05:57:55.207Z,93.60
2018-01-15T06:00:22.845Z,93.50
2018-01-15T06:02:50.471Z,93.50
2018-01-15T06:05:18.082Z,93.50
2018-01-15T06:07:45.698Z,93.50
2018-01-15T06:10:13.297Z,93.60
2018-01-15T06:12:40.889Z,93.50
2018-01-15T06:15:10.429Z,93.60
2018-01-15T06:17:38.008Z,93.70
2018-01-15T06:20:05.603Z,93.60
2018-01-15T06:22:33.221Z,93.50
2018-01-15T06:25:00.797Z,93.40
2018-01-15T06:27:28.412Z,93.40
2018-01-15T06:30:02.562Z,93.80
2018-01-15T06:32:31.054Z,93.40
2018-01-15T06:34:58.653Z,93.60
2018-01-15T06:37:26.254Z,93.70
2018-01-15T06:39:53.853Z,93.80
2018-01-15T06:42:22.209Z,94.10
2018-01-15T06:44:49.829Z,94.10
2018-01-15T06:47:17.449Z,94.20
2018-01-15T06:49:45.037Z,94.30
2018-01-15T06:52:12.624Z,94.30
2018-01-15T06:54:40.979Z,94.20
2018-01-15T06:57:08.591Z,94.10
2018-01-15T06:59:36.183Z,94.20
2018-01-15T07:02:03.814Z,94.20
2018-01-15T07:04:31.416Z,94.10
2018-01-15T07:06:59.018Z,94.20
2018-01-15T07:09:26.659Z,94.00
2018-01-15T07:11:54.668Z,93.70
2018-01-15T07:14:22.273Z,93.50
2018-01-15T07:16:49.882Z,93.50
2018-01-15T07:19:17.474Z,93.30
2018-01-15T07:21:45.100Z,93.30
2018-01-15T07:24:13.449Z,93.40
2018-01-15T07:26:41.073Z,93.30
2018-01-15T07:29:08.652Z,93.40
2018-01-15T07:31:36.236Z,93.50
2018-01-15T07:34:03.869Z,93.50
2018-01-15T07:36:31.463Z,93.40
2018-01-15T07:38:59.821Z,93.30
2018-01-15T07:41:27.417Z,93.20
2018-01-15T07:43:55.768Z,92.90
2018-01-15T07:46:23.376Z,92.90
2018-01-15T07:48:50.982Z,92.90
2018-01-15T07:51:18.606Z,92.70
2018-01-15T07:53:46.190Z,92.80
2018-01-15T07:56:13.772Z,92.80
2018-01-15T07:58:41.445Z,92.80
2018-01-15T08:01:09.807Z,92.80
2018-01-15T08:03:37.379Z,92.80
2018-01-15T08:06:04.973Z,92.90
2018-01-15T08:08:32.561Z,92.80
2018-01-15T08:11:00.191Z,92.90
2018-01-15T08:13:27.779Z,92.80
2018-01-15T08:15:55.362Z,92.90
2018-01-15T08:18:22.951Z,92.80
2018-01-15T08:20:51.356Z,92.50
2018-01-15T08:23:19.743Z,92.40
2018-01-15T08:25:47.319Z,92.40
2018-01-15T08:28:14.914Z,92.00
2018-01-15T08:30:42.504Z,91.90
2018-01-15T08:33:10.879Z,91.80
2018-01-15T08:35:39.282Z,91.20
2018-01-15T08:38:06.875Z,91.20
2018-01-15T08:40:34.465Z,91.20
2018-01-15T08:43:02.066Z,90.50
2018-01-15T08:45:29.655Z,90.10
2018-01-15T08:47:57.267Z,88.20
2018-01-15T08:50:26.569Z,86.70
2018-01-15T08:52:54.925Z,85.80
2018-01-15T08:55:22.517Z,85.80
2018-01-15T08:57:50.869Z,84.50
2018-01-15T09:00:18.784Z,84.50
2018-01-15T09:02:46.370Z,84.50
2018-01-15T09:05:13.964Z,84.80
2018-01-15T09:07:41.556Z,84.40
2018-01-15T09:10:09.142Z,84.40
2018-01-15T09:12:36.752Z,84.70
2018-01-15T09:15:04.355Z,83.80
2018-01-15T09:17:31.968Z,85.20
2018-01-15T09:19:59.580Z,82.80
2018-01-15T09:22:27.176Z,81.40
2018-01-15T09:24:54.801Z,81.40
2018-01-15T09:27:22.404Z,81.80
2018-01-15T09:29:49.993Z,83.40
2018-01-15T09:32:18.342Z,82.10
2018-01-15T09:34:45.933Z,82.10
2018-01-15T09:37:14.305Z,82.20
2018-01-15T09:39:42.670Z,81.10
2018-01-15T09:42:10.247Z,81.10
2018-01-15T09:44:38.634Z,81.20
2018-01-15T09:47:06.989Z,80.00
2018-01-15T09:49:34.615Z,79.90
2018-01-15T09:52:02.219Z,79.80
2018-01-15T09:54:29.795Z,81.10
2018-01-15T09:56:58.161Z,81.20
2018-01-15T09:59:26.533Z,79.20
2018-01-15T10:01:54.156Z,79.20
2018-01-15T10:04:21.761Z,79.80
2018-01-15T10:06:50.120Z,76.70
2018-01-15T10:09:17.703Z,76.70
2018-01-15T10:11:51.760Z,76.70
2018-01-15T10:14:19.403Z,74.90
2018-01-15T10:16:47.005Z,75.80
2018-01-15T10:19:14.595Z,76.40
2018-01-15T10:21:43.001Z,76.90
2018-01-15T10:24:10.619Z,76.70
2018-01-15T10:26:38.237Z,74.90
2018-01-15T10:29:05.838Z,74.30
2018-01-15T10:31:33.433Z,74.10
2018-01-15T10:34:01.784Z,74.70
2018-01-15T10:36:29.382Z,74.80
2018-01-15T10:38:57.424Z,75.10
2018-01-15T10:41:25.009Z,74.30
2018-01-15T10:43:53.359Z,73.40
2018-01-15T10:46:20.940Z,73.30
2018-01-15T10:48:49.282Z,73.40
2018-01-15T10:51:16.930Z,73.30
2018-01-15T10:53:44.505Z,72.00
2018-01-15T10:56:12.117Z,74.30
2018-01-15T10:58:39.707Z,72.40
2018-01-15T11:01:12.850Z,73.70
2018-01-15T11:03:41.250Z,72.50
2018-01-15T11:06:08.850Z,72.50
2018-01-15T11:08:36.454Z,72.70
2018-01-15T11:11:04.799Z,73.50
2018-01-15T11:13:32.372Z,73.60
2018-01-15T11:16:00.037Z,73.30
2018-01-15T11:18:27.600Z,73.00
2018-01-15T11:20:55.192Z,73.40
2018-01-15T11:23:22.810Z,73.40
2018-01-15T11:25:50.392Z,74.80
2018-01-15T11:28:18.002Z,75.00
2018-01-15T11:30:45.625Z,74.80
2018-01-15T11:33:13.984Z,74.30
2018-01-15T11:35:41.574Z,74.30
2018-01-15T11:38:09.928Z,76.10
2018-01-15T11:40:37.559Z,76.10
2018-01-15T11:43:05.162Z,76.20
2018-01-15T11:45:33.510Z,76.70
2018-01-15T11:48:01.124Z,76.70
2018-01-15T11:50:28.733Z,76.80
2018-01-15T11:52:56.353Z,76.60
2018-01-15T11:55:23.941Z,75.80
2018-01-15T11:57:51.520Z,75.60
2018-01-15T12:00:19.120Z,76.00
2018-01-15T12:02:47.463Z,76.00
2018-01-15T12:05:15.080Z,76.10
2018-01-15T12:07:42.674Z,75.40
2018-01-15T12:10:10.271Z,75.40
2018-01-15T12:12:38.660Z,74.70
2018-01-15T12:15:07.001Z,76.20
2018-01-15T12:17:34.609Z,76.10
2018-01-15T12:20:02.479Z,76.50
2018-01-15T12:22:38.525Z,75.90
2018-01-15T12:25:06.868Z,75.30
2018-01-15T12:27:34.441Z,75.30
2018-01-15T12:30:02.065Z,75.10
2018-01-15T12:32:29.630Z,74.60
2018-01-15T12:35:00.395Z,74.60
2018-01-15T12:37:27.986Z,74.90
2018-01-15T12:39:56.336Z,73.10
2018-01-15T12:42:23.912Z,73.10
2018-01-15T12:44:52.320Z,74.50
2018-01-15T12:47:20.534Z,74.40
2018-01-15T12:49:48.136Z,72.50
2018-01-15T12:52:15.731Z,72.40
2018-01-15T12:54:43.300Z,73.60
2018-01-15T12:57:10.922Z,74.30
2018-01-15T12:59:39.311Z,73.70
2018-01-15T13:02:06.923Z,73.70
2018-01-15T13:04:34.542Z,73.40
2018-01-15T13:07:02.122Z,72.50
2018-01-15T13:09:29.730Z,73.50
2018-01-15T13:11:57.314Z,73.50
2018-01-15T13:14:25.647Z,74.40
2018-01-15T13:16:53.265Z,74.30
2018-01-15T13:19:21.794Z,73.60
2018-01-15T13:21:49.384Z,74.40
2018-01-15T13:24:17.746Z,75.10
2018-01-15T13:26:45.345Z,75.10
2018-01-15T13:29:12.952Z,74.40
2018-01-15T13:31:40.534Z,74.70
2018-01-15T13:34:08.126Z,74.40
2018-01-15T13:36:35.699Z,75.00
2018-01-15T13:39:03.301Z,75.10
2018-01-15T13:41:30.901Z,73.30
2018-01-15T13:43:59.248Z,74.30
2018-01-15T13:46:26.838Z,74.20
2018-01-15T13:49:01.714Z,74.60
2018-01-15T13:51:29.311Z,74.60
2018-01-15T13:53:56.927Z,74.70
2018-01-15T13:56:24.528Z,73.70
2018-01-15T13:58:52.908Z,75.30
2018-01-15T14:01:20.508Z,75.20
2018-01-15T14:03:48.108Z,75.60
2018-01-15T14:06:15.718Z,76.40
2018-01-15T14:08:43.347Z,76.30
2018-01-15T14:11:10.943Z,76.40
2018-01-15T14:13:39.316Z,75.70
2018-01-15T14:16:07.678Z,77.20
2018-01-15T14:18:36.060Z,76.60
2018-01-15T14:21:03.673Z,76.20
2018-01-15T14:23:31.268Z,76.40
2018-01-15T14:25:58.879Z,77.60
2018-01-15T14:28:26.468Z,78.10
2018-01-15T14:30:54.080Z,78.00
2018-01-15T14:33:22.463Z,78.60
2018-01-15T14:35:50.815Z,78.90
2018-01-15T14:38:21.742Z,78.90
2018-01-15T14:40:49.343Z,78.80
2018-01-15T14:43:17.746Z,79.10
2018-01-15T14:45:45.350Z,79.10
2018-01-15T14:48:12.954Z,79.60
2018-01-15T14:50:40.870Z,79.70
2018-01-15T14:53:08.494Z,80.50
2018-01-15T14:55:38.105Z,80.80
2018-01-15T14:58:05.706Z,81.20
2018-01-15T15:00:33.313Z,81.30
2018-01-15T15:03:00.920Z,81.60
2018-01-15T15:05:28.522Z,81.10
2018-01-15T15:07:56.908Z,81.40
2018-01-15T15:10:24.502Z,81.40
2018-01-15T15:12:52.106Z,81.30
2018-01-15T15:15:19.726Z,80.80
2018-01-15T15:17:47.328Z,80.70
2018-01-15T15:20:14.958Z,81.10
2018-01-15T15:23:01.920Z,81.10
2018-01-15T15:25:30.288Z,81.10
2018-01-15T15:27:58.643Z,81.50
2018-01-15T15:30:26.260Z,81.50
2018-01-15T15:32:53.865Z,81.30
2018-01-15T15:35:21.465Z,81.50
2018-01-15T15:37:49.811Z,81.70
2018-01-15T15:40:17.397Z,81.70
2018-01-15T15:42:45.785Z,81.70
2018-01-15T15:45:13.377Z,81.70
2018-01-15T15:47:40.973Z,81.80
2018-01-15T15:50:08.556Z,81.60
2018-01-15T15:52:36.921Z,81.70
2018-01-15T15:55:04.546Z,81.70
2018-01-15T15:57:32.154Z,81.90
2018-01-15T16:00:00.543Z,82.20
2018-01-15T16:02:28.892Z,82.20
2018-01-15T16:04:56.521Z,82.10
2018-01-15T16:07:24.162Z,82.10
2018-01-15T16:09:51.747Z,82.50
2018-01-15T16:12:19.332Z,82.70
2018-01-15T16:14:46.947Z,82.70
2018-01-15T16:17:14.542Z,83.00
2018-01-15T16:19:42.179Z,83.10
2018-01-15T16:22:22.690Z,83.40
2018-01-15T16:24:50.358Z,84.20
2018-01-15T16:27:22.391Z,84.10
2018-01-15T16:29:51.074Z,84.20
2018-01-15T16:32:18.682Z,84.20
2018-01-15T16:34:46.350Z,84.00
2018-01-15T16:37:17.789Z,83.80
2018-01-15T16:39:45.395Z,83.70
2018-01-15T16:42:16.272Z,83.30
2018-01-15T16:44:43.880Z,83.60
2018-01-15T16:47:19.387Z,83.30
2018-01-15T16:49:48.085Z,83.30
2018-01-15T16:52:15.669Z,83.20
2018-01-15T16:54:47.179Z,82.70
2018-01-15T16:57:14.790Z,82.70
2018-01-15T16:59:42.539Z,82.60
2018-01-15T17:02:10.137Z,82.30
2018-01-15T17:04:37.741Z,82.10
2018-01-15T17:07:05.350Z,81.90
2018-01-15T17:09:41.433Z,81.00
2018-01-15T17:12:09.041Z,80.50
2018-01-15T17:14:37.389Z,80.70
2018-01-15T17:17:07.010Z,80.60
2018-01-15T17:19:34.609Z,79.90
2018-01-15T17:22:02.197Z,79.50
2018-01-15T17:24:29.808Z,80.00
2018-01-15T17:26:58.178Z,79.10
2018-01-15T17:29:25.767Z,79.10
2018-01-15T17:31:54.175Z,78.80
2018-01-15T17:34:21.887Z,78.70
2018-01-15T17:36:50.267Z,78.60
2018-01-15T17:39:18.634Z,77.90
2018-01-15T17:41:46.264Z,77.80
2018-01-15T17:44:13.848Z,77.80
2018-01-15T17:46:41.427Z,78.10
2018-01-15T17:49:09.047Z,78.30
2018-01-15T17:51:36.642Z,77.90
2018-01-15T17:54:04.273Z,77.60
2018-01-15T17:56:31.872Z,78.40
2018-01-15T17:59:05.928Z,77.90
2018-01-15T18:01:33.511Z,77.90
2018-01-15T18:04:01.127Z,78.20
2018-01-15T18:06:29.520Z,78.60
2018-01-15T18:08:57.148Z,78.50
2018-01-15T18:11:25.507Z,78.50
2018-01-15T18:13:53.263Z,78.40
2018-01-15T18:16:20.877Z,78.90
2018-01-15T18:18:48.545Z,79.10
2018-01-15T18:21:16.189Z,78.90
2018-01-15T18:23:44.558Z,80.00
2018-01-15T18:26:12.157Z,80.00
2018-01-15T18:28:57.738Z,80.80
2018-01-15T18:31:31.051Z,81.10
2018-01-15T18:33:58.650Z,81.10
2018-01-15T18:36:26.235Z,81.20
2018-01-15T18:38:54.609Z,82.70
2018-01-15T18:41:22.977Z,83.00
2018-01-15T18:43:50.590Z,82.90
2018-01-15T18:46:19.172Z,83.40
2018-01-15T18:48:46.852Z,84.30
2018-01-15T18:51:14.445Z,85.30
2018-01-15T18:53:42.813Z,87.50
2018-01-15T18:56:10.453Z,87.50
2018-01-15T18:58:38.066Z,88.70
2018-01-15T19:01:07.453Z,90.10
2018-01-15T19:03:35.082Z,90.10
2018-01-15T19:06:15.146Z,90.40
2018-01-15T19:08:42.785Z,90.70
2018-01-15T19:11:11.121Z,90.70
2018-01-15T19:13:39.907Z,91.50
2018-01-15T19:16:07.518Z,91.50
2018-01-15T19:18:39.080Z,91.60
2018-01-15T19:21:06.712Z,91.60
2018-01-15T19:23:34.341Z,91.90
2018-01-15T19:26:01.993Z,92.40
2018-01-15T19:28:29.623Z,92.70
2018-01-15T19:30:57.224Z,92.70
2018-01-15T19:33:25.687Z,93.20
2018-01-15T19:35:59.000Z,93.20
2018-01-15T19:38:31.865Z,93.50
2018-01-15T19:40:59.468Z,93.50
2018-01-15T19:43:28.888Z,93.70
2018-01-15T19:46:02.358Z,93.80
2018-01-15T19:48:36.290Z,94.30
2018-01-15T19:51:09.654Z,94.30
2018-01-15T19:53:42.943Z,94.40
2018-01-15T19:56:16.261Z,94.50
2018-01-15T19:58:50.350Z,94.60
2018-01-15T20:01:24.503Z,94.60
2018-01-15T20:03:57.813Z,94.60
2018-01-15T20:06:31.040Z,94.90
2018-01-15T20:09:04.410Z,94.70
2018-01-15T20:11:32.014Z,95.10
2018-01-15T20:14:00.419Z,94.80
2018-01-15T20:16:35.682Z,94.80
2018-01-15T20:19:03.290Z,95.00
2018-01-15T20:21:31.670Z,95.30
2018-01-15T20:23:59.270Z,95.20
2018-01-15T20:26:26.862Z,95.20
2018-01-15T20:28:54.479Z,95.30
2018-01-15T20:31:22.078Z,95.30
2018-01-15T20:33:49.682Z,95.20
2018-01-15T20:36:17.299Z,95.40
2018-01-15T20:38:53.095Z,95.40
2018-01-15T20:41:20.763Z,95.50
2018-01-15T20:43:49.121Z,95.40
2018-01-15T20:46:16.737Z,95.40
2018-01-15T20:48:54.480Z,95.60
2018-01-15T20:51:22.076Z,95.70
2018-01-15T20:53:50.464Z,95.50
2018-01-15T20:56:26.576Z,95.50
2018-01-15T20:58:54.206Z,95.30
2018-01-15T21:01:21.795Z,95.30
2018-01-15T21:03:49.403Z,95.30
2018-01-15T21:06:17.002Z,95.30
2018-01-15T21:08:44.607Z,95.50
2018-01-15T21:11:25.115Z,95.40
2018-01-15T21:13:52.696Z,95.30
2018-01-15T21:16:20.315Z,95.30
2018-01-15T21:18:47.906Z,95.60
2018-01-15T21:21:15.503Z,95.60
2018-01-15T21:23:43.117Z,95.70
2018-01-15T21:26:10.722Z,95.80
2018-01-15T21:28:38.300Z,95.80
2018-01-15T21:31:06.672Z,95.70
2018-01-15T21:33:34.398Z,95.70
2018-01-15T21:36:02.015Z,96.00
2018-01-15T21:38:42.805Z,95.80
2018-01-15T21:41:10.424Z,95.80
2018-01-15T21:43:38.011Z,95.90
2018-01-15T21:46:06.370Z,95.60
2018-01-15T21:48:34.754Z,95.70
2018-01-15T21:51:03.145Z,95.80
2018-01-15T21:53:31.519Z,95.90
2018-01-15T21:55:59.894Z,95.80
2018-01-15T21:58:28.270Z,96.10
2018-01-15T22:00:56.633Z,95.90
2018-01-15T22:03:32.150Z,95.90
2018-01-15T22:05:59.783Z,95.70
2018-01-15T22:08:27.376Z,95.70
2018-01-15T22:10:54.955Z,95.50
2018-01-15T22:13:22.552Z,95.50
2018-01-15T22:15:50.917Z,95.30
2018-01-15T22:18:18.544Z,95.30
2018-01-15T22:20:46.134Z,95.00
2018-01-15T22:23:13.725Z,95.00
2018-01-15T22:25:43.308Z,94.90
2018-01-15T22:28:10.908Z,94.90
2018-01-15T22:30:38.540Z,94.80
2018-01-15T22:33:06.903Z,94.50
2018-01-15T22:35:34.498Z,94.40
2018-01-15T22:38:02.101Z,94.60
2018-01-15T22:40:29.693Z,94.20
2018-01-15T22:42:57.311Z,94.40
2018-01-15T22:45:24.900Z,94.60
2018-01-15T22:47:52.520Z,94.40
2018-01-15T22:50:20.115Z,94.70
2018-01-15T22:52:47.722Z,95.00
2018-01-15T22:55:15.353Z,95.00
2018-01-15T22:57:42.939Z,95.00
2018-01-15T23:00:11.322Z,95.40
2018-01-15T23:02:38.925Z,95.40
2018-01-15T23:05:06.504Z,95.40
2018-01-15T23:07:34.135Z,95.10
2018-01-15T23:10:01.728Z,95.20
2018-01-15T23:12:29.348Z,95.20
2018-01-15T23:14:56.948Z,95.40
2018-01-15T23:17:24.560Z,95.30
2018-01-15T23:19:52.180Z,95.30
2018-01-15T23:22:19.776Z,95.20
2018-01-15T23:24:47.406Z,95.30
2018-01-15T23:27:14.992Z,95.50
2018-01-15T23:29:43.347Z,95.80
2018-01-15T23:32:10.989Z,95.70
2018-01-15T23:34:38.631Z,95.90
2018-01-15T23:37:06.211Z,96.20
2018-01-15T23:39:34.585Z,96.10
2018-01-15T23:42:02.179Z,96.10
2018-01-15T23:44:29.782Z,96.30
2018-01-15T23:46:57.369Z,96.40
2018-01-15T23:49:24.956Z,96.40
2018-01-15T23:51:52.559Z,96.40
2018-01-15T23:54:33.205Z,96.40
2018-01-15T23:57:01.598Z,96.30
2018-01-15T23:59:29.204Z,96.30
